createdAt,value
2018-06-23T00:02:14.321Z,9.43
2018-06-23T00:04:46.393Z,9.45
2018-06-23T00:07:16.640Z,9.46
2018-06-23T00:09:46.872Z,9.47
2018-06-23T00:12:20.009Z,9.46
2018-06-23T00:14:50.538Z,9.51
2018-06-23T00:17:21.045Z,9.46
2018-06-23T00:19:51.773Z,9.56
2018-06-23T00:22:21.859Z,9.62
2018-06-23T00:24:52.269Z,9.47
2018-06-23T00:27:22.477Z,9.47
2018-06-23T00:29:54.042Z,9.41
2018-06-23T00:32:24.446Z,9.40
2018-06-23T00:34:54.551Z,9.39
2018-06-23T00:37:24.630Z,9.37
2018-06-23T00:39:54.725Z,9.43
2018-06-23T00:42:34.462Z,9.51
2018-06-23T00:45:04.819Z,9.58
2018-06-23T00:47:53.623Z,9.58
2018-06-23T00:50:24.437Z,9.63
2018-06-23T00:52:54.496Z,9.64
2018-06-23T00:55:24.618Z,9.69
2018-06-23T00:57:54.858Z,9.63
2018-06-23T01:00:25.550Z,9.59
2018-06-23T01:03:01.601Z,9.47
2018-06-23T01:05:32.221Z,9.47
2018-06-23T01:08:06.492Z,9.39
2018-06-23T01:10:53.637Z,9.32
2018-06-23T01:13:29.930Z,9.23
2018-06-23T01:16:00.914Z,9.19
2018-06-23T01:18:33.433Z,9.12
2018-06-23T01:21:04.332Z,9.23
2018-06-23T01:23:34.600Z,9.13
2018-06-23T01:26:05.187Z,9.18
2018-06-23T01:28:35.717Z,9.12
2018-06-23T01:31:05.936Z,9.00
2018-06-23T01:33:36.104Z,9.00
2018-06-23T01:36:07.418Z,8.95
2018-06-23T01:38:38.386Z,8.96
2018-06-23T01:41:09.641Z,8.88
2018-06-23T01:43:40.734Z,8.90
2018-06-23T01:46:11.014Z,8.83
2018-06-23T01:48:41.532Z,8.83
2018-06-23T01:51:12.420Z,8.79
2018-06-23T01:53:43.859Z,8.75
2018-06-23T01:56:14.146Z,8.79
2018-06-23T01:58:44.235Z,8.75
2018-06-23T02:01:14.538Z,8.72
2018-06-23T02:03:45.965Z,8.73
2018-06-23T02:06:18.205Z,8.66
2018-06-23T02:08:50.692Z,8.69
2018-06-23T02:11:21.284Z,8.70
2018-06-23T02:13:56.961Z,8.72
2018-06-23T02:16:32.200Z,8.73
2018-06-23T02:19:07.306Z,8.71
2018-06-23T02:21:42.727Z,8.71
2018-06-23T02:24:17.764Z,8.79
2018-06-23T02:26:53.091Z,8.81
2018-06-23T02:32:30.817Z,8.83
2018-06-23T02:35:05.861Z,8.80
2018-06-23T02:37:39.971Z,8.76
2018-06-23T02:40:11.133Z,8.75
2018-06-23T02:42:41.284Z,8.76
2018-06-23T02:45:11.341Z,8.83
2018-06-23T02:47:41.537Z,8.90
2018-06-23T02:50:11.577Z,8.93
2018-06-23T02:52:41.701Z,9.07
2018-06-23T02:55:11.832Z,9.07
2018-06-23T02:57:42.001Z,9.13
2018-06-23T03:00:13.695Z,9.15
2018-06-23T03:02:44.796Z,9.10
2018-06-23T03:05:15.937Z,9.18
2018-06-23T03:07:45.956Z,9.11
2018-06-23T03:10:16.064Z,9.11
2018-06-23T03:12:46.788Z,9.09
2018-06-23T03:15:16.926Z,9.05
2018-06-23T03:17:47.040Z,8.99
2018-06-23T03:20:17.216Z,8.95
2018-06-23T03:22:47.377Z,8.95
2018-06-23T03:25:17.688Z,8.90
2018-06-23T03:27:47.807Z,8.89
2018-06-23T03:30:18.044Z,8.83
2018-06-23T03:32:48.286Z,8.81
2018-06-23T03:35:18.537Z,8.80
2018-06-23T03:37:48.917Z,8.80
2018-06-23T03:40:18.976Z,8.87
2018-06-23T03:42:49.127Z,8.75
2018-06-23T03:45:35.789Z,8.76
2018-06-23T03:48:06.151Z,8.64
2018-06-23T03:50:38.056Z,8.60
2018-06-23T03:53:08.182Z,8.57
2018-06-23T03:55:40.553Z,8.55
2018-06-23T03:58:14.905Z,8.57
2018-06-23T04:00:50.259Z,8.58
2018-06-23T04:03:21.065Z,8.76
2018-06-23T04:05:51.161Z,8.78
2018-06-23T04:08:21.218Z,8.75
2018-06-23T04:10:51.301Z,8.73
2018-06-23T04:13:22.082Z,8.67
2018-06-23T04:15:52.219Z,8.73
2018-06-23T04:18:22.546Z,8.67
2018-06-23T04:20:54.444Z,8.67
2018-06-23T04:23:27.425Z,8.72
2018-06-23T04:25:58.474Z,8.75
2018-06-23T04:28:29.488Z,8.72
2018-06-23T04:31:01.109Z,8.73
2018-06-23T04:33:32.757Z,8.63
2018-06-23T04:36:06.772Z,8.77
2018-06-23T04:38:37.280Z,8.78
2018-06-23T04:41:08.700Z,8.79
2018-06-23T04:43:53.749Z,8.80
2018-06-23T04:46:26.971Z,8.82
2018-06-23T04:48:57.600Z,8.98
2018-06-23T04:51:28.499Z,8.99
2018-06-23T04:53:58.972Z,8.95
2018-06-23T04:56:29.678Z,9.10
2018-06-23T04:59:00.024Z,9.04
2018-06-23T05:01:30.496Z,9.12
2018-06-23T05:04:00.673Z,9.01
2018-06-23T05:06:32.034Z,8.96
2018-06-23T05:09:04.685Z,8.93
2018-06-23T05:11:35.369Z,8.95
2018-06-23T05:14:06.363Z,9.11
2018-06-23T05:16:38.482Z,9.13
2018-06-23T05:19:12.016Z,9.18
2018-06-23T05:21:42.494Z,9.18
2018-06-23T05:24:18.193Z,9.25
2018-06-23T05:26:52.274Z,9.26
2018-06-23T05:29:28.020Z,9.33
2018-06-23T05:31:58.344Z,9.42
2018-06-23T05:34:29.792Z,9.52
2018-06-23T05:37:00.114Z,9.63
2018-06-23T05:39:30.956Z,9.81
2018-06-23T05:42:01.339Z,10.03
2018-06-23T05:44:31.682Z,10.19
2018-06-23T05:47:32.968Z,10.31
2018-06-23T05:50:09.492Z,10.56
2018-06-23T05:55:47.329Z,10.93
2018-06-23T05:58:17.928Z,11.12
2018-06-23T06:00:48.683Z,11.20
2018-06-23T06:03:25.898Z,11.27
2018-06-23T06:05:57.199Z,11.38
2018-06-23T06:16:52.999Z,11.46
2018-06-23T06:19:38.822Z,12.03
2018-06-23T06:22:13.222Z,12.04
2018-06-23T06:24:45.518Z,12.10
2018-06-23T06:29:41.079Z,12.38
2018-06-23T06:32:13.507Z,12.36
2018-06-23T06:34:48.877Z,12.51
2018-06-23T06:37:24.375Z,12.79
2018-06-23T06:39:53.950Z,13.07
2018-06-23T06:42:23.684Z,13.19
2018-06-23T06:45:01.600Z,13.29
2018-06-23T06:47:31.773Z,13.45
2018-06-23T06:50:01.288Z,13.45
2018-06-23T06:52:31.248Z,13.52
2018-06-23T06:55:00.843Z,13.62
2018-06-23T06:57:31.495Z,13.76
2018-06-23T07:00:01.356Z,14.34
2018-06-23T07:02:31.221Z,14.54
2018-06-23T07:05:01.196Z,14.83
2018-06-23T07:07:31.423Z,15.00
2018-06-23T07:10:01.122Z,15.10
2018-06-23T07:12:30.932Z,15.18
2018-06-23T07:15:00.587Z,15.08
2018-06-23T07:17:30.385Z,14.84
2018-06-23T07:19:59.912Z,14.68
2018-06-23T07:22:29.909Z,14.61
2018-06-23T07:24:59.772Z,14.53
2018-06-23T07:27:29.395Z,14.50
2018-06-23T07:29:58.859Z,14.68
2018-06-23T07:32:47.140Z,14.80
2018-06-23T07:35:16.812Z,15.00
2018-06-23T07:37:46.482Z,15.39
2018-06-23T07:40:16.468Z,15.84
2018-06-23T07:42:46.114Z,16.12
2018-06-23T07:45:15.782Z,16.06
2018-06-23T07:47:45.542Z,15.95
2018-06-23T07:50:15.041Z,15.69
2018-06-23T07:52:45.233Z,15.46
2018-06-23T07:55:14.765Z,15.55
2018-06-23T07:57:44.821Z,15.45
2018-06-23T08:00:14.612Z,15.31
2018-06-23T08:02:44.211Z,15.43
2018-06-23T08:05:13.809Z,15.54
2018-06-23T08:07:45.822Z,15.57
2018-06-23T08:10:15.557Z,15.53
2018-06-23T08:12:44.994Z,15.33
2018-06-23T08:15:14.488Z,15.47
2018-06-23T08:17:43.894Z,15.66
2018-06-23T08:20:13.712Z,15.81
2018-06-23T08:22:52.830Z,16.20
2018-06-23T08:26:12.637Z,16.37
2018-06-23T08:28:47.866Z,16.42
2018-06-23T08:31:17.724Z,16.50
2018-06-23T08:33:47.528Z,16.75
2018-06-23T08:36:17.146Z,16.95
2018-06-23T08:38:46.905Z,17.37
2018-06-23T08:41:17.307Z,17.36
2018-06-23T08:43:47.511Z,16.78
2018-06-23T08:46:17.424Z,16.52
2018-06-23T08:48:47.281Z,16.49
2018-06-23T08:51:19.949Z,17.32
2018-06-23T08:53:50.711Z,18.04
2018-06-23T08:56:21.058Z,18.73
2018-06-23T08:58:50.524Z,20.34
2018-06-23T09:01:19.924Z,21.26
2018-06-23T09:03:50.460Z,22.14
2018-06-23T09:06:19.937Z,22.63
2018-06-23T09:08:49.625Z,23.59
2018-06-23T09:11:19.143Z,23.38
2018-06-23T09:13:48.635Z,22.56
2018-06-23T09:16:18.126Z,21.52
2018-06-23T09:18:48.112Z,20.60
2018-06-23T09:21:17.843Z,19.91
2018-06-23T09:23:48.253Z,19.42
2018-06-23T09:26:19.880Z,20.05
2018-06-23T09:28:52.522Z,20.87
2018-06-23T09:31:22.333Z,21.23
2018-06-23T09:33:55.602Z,20.68
2018-06-23T09:43:18.428Z,21.01
2018-06-23T09:45:48.695Z,20.66
2018-06-23T09:48:20.263Z,21.09
2018-06-23T09:50:50.032Z,20.02
2018-06-23T09:53:19.549Z,19.42
2018-06-23T09:55:51.008Z,18.87
2018-06-23T09:58:21.509Z,18.67
2018-06-23T10:00:51.160Z,18.39
2018-06-23T10:03:23.219Z,18.15
2018-06-23T10:05:53.600Z,18.11
2018-06-23T10:08:23.467Z,18.28
2018-06-23T10:10:56.127Z,18.51
2018-06-23T10:13:27.190Z,18.80
2018-06-23T10:15:59.264Z,20.52
2018-06-23T10:18:28.977Z,20.76
2018-06-23T10:20:59.221Z,20.81
2018-06-23T10:23:28.847Z,20.37
2018-06-23T10:25:58.913Z,19.91
2018-06-23T10:28:28.564Z,19.33
2018-06-23T10:30:58.601Z,18.86
2018-06-23T10:33:28.360Z,18.43
2018-06-23T10:35:58.050Z,18.28
2018-06-23T10:38:27.924Z,18.79
2018-06-23T10:40:57.473Z,19.20
2018-06-23T10:43:26.925Z,20.09
2018-06-23T10:45:56.455Z,20.77
2018-06-23T10:48:26.477Z,21.96
2018-06-23T10:53:15.329Z,23.15
2018-06-23T10:55:44.993Z,23.43
2018-06-23T10:58:16.092Z,22.37
2018-06-23T11:00:45.664Z,21.52
2018-06-23T11:03:19.139Z,22.02
2018-06-23T11:05:49.733Z,22.53
2018-06-23T11:08:19.561Z,22.11
2018-06-23T11:10:49.362Z,22.03
2018-06-23T11:13:20.951Z,22.10
2018-06-23T11:15:55.105Z,21.92
2018-06-23T11:18:24.724Z,22.30
2018-06-23T11:20:56.440Z,21.82
2018-06-23T11:23:25.953Z,21.75
2018-06-23T11:25:55.556Z,20.70
2018-06-23T11:28:25.515Z,20.46
2018-06-23T11:30:55.186Z,22.55
2018-06-23T11:33:25.132Z,24.04
2018-06-23T11:35:56.244Z,24.52
2018-06-23T11:38:26.454Z,24.77
2018-06-23T11:40:56.163Z,24.55
2018-06-23T11:43:25.958Z,24.70
2018-06-23T11:45:57.917Z,24.86
2018-06-23T11:48:27.475Z,24.09
2018-06-23T11:50:57.677Z,23.90
2018-06-23T11:53:27.248Z,23.86
2018-06-23T11:55:57.010Z,24.91
2018-06-23T11:58:27.490Z,26.71
2018-06-23T12:00:57.770Z,27.11
2018-06-23T12:03:27.619Z,28.30
2018-06-23T12:05:57.686Z,28.23
2018-06-23T12:08:29.961Z,28.09
2018-06-23T12:11:00.350Z,28.02
2018-06-23T12:13:30.170Z,27.18
2018-06-23T12:15:59.998Z,27.13
2018-06-23T12:19:17.223Z,25.33
2018-06-23T12:21:51.394Z,24.16
2018-06-23T12:27:18.177Z,23.38
2018-06-23T12:29:47.881Z,23.23
2018-06-23T12:32:17.750Z,22.73
2018-06-23T12:34:47.983Z,22.24
2018-06-23T12:37:17.611Z,21.82
2018-06-23T12:39:47.314Z,21.76
2018-06-23T12:42:17.749Z,21.99
2018-06-23T12:44:49.097Z,22.19
2018-06-23T12:47:18.890Z,22.43
2018-06-23T12:49:48.515Z,22.84
2018-06-23T12:52:19.334Z,23.84
2018-06-23T12:54:51.293Z,24.79
2018-06-23T12:57:22.473Z,25.28
2018-06-23T12:59:53.258Z,25.50
2018-06-23T13:02:23.055Z,24.87
2018-06-23T13:04:52.589Z,23.16
2018-06-23T13:07:25.790Z,23.14
2018-06-23T13:09:56.728Z,24.42
2018-06-23T13:12:28.512Z,25.47
2018-06-23T13:15:05.485Z,26.17
2018-06-23T13:17:41.345Z,24.58
2018-06-23T13:20:13.520Z,24.97
2018-06-23T13:22:50.219Z,26.15
2018-06-23T13:25:20.008Z,27.57
2018-06-23T13:27:50.441Z,28.19
2018-06-23T13:30:20.528Z,27.52
2018-06-23T13:32:50.369Z,26.81
2018-06-23T13:35:20.391Z,26.03
2018-06-23T13:37:49.960Z,25.01
2018-06-23T13:40:20.080Z,24.61
2018-06-23T13:42:52.307Z,24.37
2018-06-23T13:45:22.127Z,25.56
2018-06-23T13:54:01.059Z,27.39
2018-06-23T13:56:30.731Z,29.35
2018-06-23T13:59:00.371Z,29.08
2018-06-23T14:01:30.109Z,28.18
2018-06-23T14:04:01.254Z,27.22
2018-06-23T14:06:33.454Z,26.58
2018-06-23T14:09:03.292Z,27.51
2018-06-23T14:11:32.755Z,27.90
2018-06-23T14:14:02.840Z,28.00
2018-06-23T14:16:32.702Z,27.98
2018-06-23T14:19:02.377Z,27.70
2018-06-23T14:21:32.501Z,27.34
2018-06-23T14:24:02.421Z,26.16
2018-06-23T14:26:33.029Z,26.01
2018-06-23T14:29:03.060Z,25.33
2018-06-23T14:31:33.529Z,25.89
2018-06-23T14:34:03.319Z,25.80
2018-06-23T14:36:34.728Z,25.65
2018-06-23T14:39:09.328Z,25.52
2018-06-23T14:41:43.504Z,24.89
2018-06-23T14:44:14.164Z,24.64
2018-06-23T14:46:48.518Z,24.79
2018-06-23T14:50:13.533Z,25.58
2018-06-23T14:52:43.048Z,25.96
2018-06-23T14:55:13.450Z,25.34
2018-06-23T14:57:44.450Z,25.10
2018-06-23T15:00:14.310Z,24.46
2018-06-23T15:02:44.080Z,24.61
2018-06-23T15:05:14.360Z,23.94
2018-06-23T15:07:45.618Z,23.33
2018-06-23T15:10:27.031Z,23.03
2018-06-23T15:13:12.033Z,22.19
2018-06-23T15:15:44.993Z,22.05
2018-06-23T15:18:16.153Z,21.46
2018-06-23T15:20:51.595Z,21.69
2018-06-23T15:23:25.903Z,22.05
2018-06-23T15:25:56.124Z,22.46
2018-06-23T15:28:26.932Z,21.97
2018-06-23T15:31:00.680Z,22.24
2018-06-23T15:33:30.256Z,22.24
2018-06-23T15:35:59.859Z,22.58
2018-06-23T15:38:29.320Z,22.42
2018-06-23T15:41:03.766Z,22.01
2018-06-23T15:43:34.627Z,22.22
2018-06-23T15:46:04.528Z,22.31
2018-06-23T15:48:49.678Z,22.54
2018-06-23T15:51:19.563Z,22.55
2018-06-23T15:53:51.734Z,22.29
2018-06-23T15:56:21.458Z,22.29
2018-06-23T15:58:52.596Z,22.46
2018-06-23T16:01:25.414Z,22.56
2018-06-23T16:03:57.564Z,22.89
2018-06-23T16:06:27.960Z,22.89
2018-06-23T16:08:58.054Z,22.91
2018-06-23T16:11:28.060Z,22.67
2018-06-23T16:13:57.616Z,22.16
2018-06-23T16:16:27.158Z,21.95
2018-06-23T16:18:56.691Z,21.67
2018-06-23T16:21:26.127Z,21.13
2018-06-23T17:00:36.924Z,19.70
2018-06-23T17:03:06.361Z,19.64
2018-06-23T17:05:35.918Z,19.62
2018-06-23T17:08:05.532Z,19.39
2018-06-23T17:10:34.970Z,19.30
2018-06-23T17:13:04.634Z,19.26
2018-06-23T17:15:34.045Z,19.24
2018-06-23T17:18:05.089Z,19.36
2018-06-23T17:20:34.599Z,19.34
2018-06-23T17:23:04.706Z,19.29
2018-06-23T17:25:34.120Z,19.30
2018-06-23T17:28:04.786Z,19.06
2018-06-23T17:30:34.829Z,19.12
2018-06-23T17:33:04.680Z,18.92
2018-06-23T17:35:37.723Z,18.72
2018-06-23T17:38:08.212Z,18.80
2018-06-23T17:40:41.095Z,18.90
2018-06-23T17:43:10.875Z,18.96
2018-06-23T17:45:40.808Z,18.78
2018-06-23T17:48:10.407Z,18.76
2018-06-23T17:50:40.136Z,18.73
2018-06-23T17:53:09.899Z,18.80
2018-06-23T17:55:40.616Z,18.77
2018-06-23T17:58:14.035Z,18.78
2018-06-23T18:00:44.224Z,18.95
2018-06-23T18:03:13.880Z,18.82
2018-06-23T18:05:43.349Z,18.68
2018-06-23T18:08:13.103Z,18.70
2018-06-23T18:10:42.817Z,18.56
2018-06-23T18:13:12.778Z,18.60
2018-06-23T18:15:42.589Z,18.55
2018-06-23T18:21:16.558Z,18.40
2018-06-23T18:23:47.553Z,18.36
2018-06-23T18:26:19.244Z,18.33
2018-06-23T18:28:52.818Z,18.38
2018-06-23T18:31:27.249Z,18.22
2018-06-23T18:33:58.608Z,18.04
2018-06-23T18:36:28.360Z,17.95
2018-06-23T18:39:02.658Z,17.84
2018-06-23T18:41:32.437Z,17.81
2018-06-23T18:44:04.076Z,17.65
2018-06-23T18:46:40.231Z,17.62
2018-06-23T18:49:10.296Z,17.70
2018-06-23T18:51:41.401Z,17.59
2018-06-23T18:54:14.153Z,17.50
2018-06-23T18:56:48.053Z,17.49
2018-06-23T18:59:26.624Z,17.36
2018-06-23T19:04:55.771Z,17.10
2018-06-23T19:07:31.313Z,17.08
2018-06-23T19:10:07.495Z,17.03
2018-06-23T19:12:38.609Z,16.95
2018-06-23T19:15:09.166Z,16.91
2018-06-23T19:17:42.414Z,16.96
2018-06-23T19:20:24.162Z,17.00
2018-06-23T19:22:57.335Z,16.98
2018-06-23T19:25:27.602Z,16.79
2018-06-23T19:28:00.339Z,16.72
2018-06-23T19:34:02.004Z,16.60
2018-06-23T19:36:37.079Z,16.39
2018-06-23T19:39:13.214Z,16.30
2018-06-23T19:41:48.935Z,16.39
2018-06-23T19:44:19.211Z,16.27
2018-06-23T19:46:49.208Z,16.23
2018-06-23T19:55:05.571Z,16.12
2018-06-23T19:57:40.122Z,16.15
2018-06-23T20:00:13.947Z,16.03
2018-06-23T20:02:48.332Z,16.03
2018-06-23T20:05:18.643Z,15.91
2018-06-23T20:07:52.009Z,15.86
2018-06-23T20:10:23.786Z,15.88
2018-06-23T20:12:59.308Z,15.80
2018-06-23T20:15:31.387Z,15.85
2018-06-23T20:18:07.468Z,15.92
2018-06-23T20:20:38.150Z,15.95
2018-06-23T20:23:08.236Z,15.93
2018-06-23T20:25:39.018Z,15.92
2018-06-23T20:40:04.039Z,15.74
2018-06-23T20:42:35.912Z,15.71
2018-06-23T20:45:15.562Z,15.76
2018-06-23T20:47:48.249Z,15.75
2018-06-23T20:53:00.314Z,15.62
2018-06-23T20:55:32.619Z,15.58
2018-06-23T20:58:06.392Z,15.59
2018-06-23T21:15:54.209Z,14.95
2018-06-23T21:24:48.730Z,15.20
2018-06-23T21:27:25.853Z,15.23
2018-06-23T21:29:56.584Z,15.20
2018-06-23T21:32:30.624Z,15.14
2018-06-23T21:35:10.842Z,15.14
2018-06-23T21:37:47.735Z,14.98
2018-06-23T21:40:36.522Z,15.03
2018-06-23T21:43:26.004Z,14.95
2018-06-23T21:59:39.187Z,14.81
2018-06-23T22:02:28.474Z,14.83
2018-06-23T22:05:08.429Z,14.85
2018-06-23T22:07:49.850Z,15.02
2018-06-23T22:10:37.425Z,14.92
2018-06-23T22:27:21.077Z,14.63
2018-06-23T22:29:58.601Z,14.64
2018-06-23T22:32:37.261Z,14.52
2018-06-23T22:35:10.891Z,14.48
2018-06-23T23:41:07.922Z,13.18
2018-06-23T23:43:46.007Z,13.09
2018-06-23T23:46:20.808Z,12.94
2018-06-23T23:48:53.308Z,12.98
2018-06-23T23:51:26.167Z,12.89
2018-06-23T23:53:56.554Z,12.76
2018-06-23T23:56:29.088Z,12.70
2018-06-23T23:59:05.051Z,12.72
